Time;durP1;ratioP1;P1;durP2;ratioP2;P2;SDS_P1;SDS_P2;PMS_P1;PMS_P2;Temp;Humidity;BMP_temperature;BMP_pressure;BME280_temperature;BME280_humidity;BME280_pressure;Samples;Min_cycle;Max_cycle;Signal;HPM_P1;HPM_P2
2023/11/23 00:00:27;;;;;;;22.63;20.70;;;3.50;99.90;;;;;;5002151;28;20222;-78
2023/11/23 00:02:54;;;;;;;22.37;20.47;;;3.40;99.90;;;;;;4980407;28;20577;-78
2023/11/23 00:05:21;;;;;;;21.53;19.73;;;3.40;99.90;;;;;;4986445;28;20267;-77
2023/11/23 00:07:48;;;;;;;22.30;20.47;;;3.40;99.90;;;;;;5020841;28;20268;-78
2023/11/23 00:10:16;;;;;;;22.20;20.40;;;3.40;99.90;;;;;;4980531;28;20205;-78
2023/11/23 00:12:43;;;;;;;21.73;19.97;;;3.30;99.90;;;;;;4980156;28;20286;-78
2023/11/23 00:15:11;;;;;;;21.33;19.73;;;3.30;99.90;;;;;;5002916;28;20244;-79
2023/11/23 00:17:39;;;;;;;22.20;20.30;;;3.30;99.90;;;;;;4996990;28;20221;-78
2023/11/23 00:20:07;;;;;;;22.43;20.63;;;3.30;99.90;;;;;;4985866;28;20209;-78
2023/11/23 00:22:34;;;;;;;22.10;20.23;;;3.40;99.90;;;;;;5000993;28;20193;-78
2023/11/23 00:25:03;;;;;;;21.63;19.73;;;3.40;99.90;;;;;;5006592;28;20212;-78
2023/11/23 00:27:31;;;;;;;23.30;21.37;;;3.30;99.90;;;;;;4988189;28;20201;-78
2023/11/23 00:29:58;;;;;;;21.67;19.87;;;3.30;99.90;;;;;;5008036;28;20219;-78
2023/11/23 00:32:24;;;;;;;21.97;20.17;;;3.30;99.90;;;;;;4983124;28;20213;-77
2023/11/23 00:34:51;;;;;;;22.03;20.23;;;3.30;99.90;;;;;;4986863;28;20221;-78
2023/11/23 00:37:19;;;;;;;21.97;20.17;;;3.30;99.90;;;;;;4987065;28;20239;-78
2023/11/23 00:39:45;;;;;;;22.53;20.53;;;3.20;99.90;;;;;;4984244;28;20258;-78
2023/11/23 00:42:12;;;;;;;21.40;19.73;;;3.20;99.90;;;;;;4979679;28;20205;-78
2023/11/23 00:44:40;;;;;;;22.00;20.30;;;3.20;99.90;;;;;;4979089;28;20225;-78
2023/11/23 00:47:07;;;;;;;21.10;19.40;;;3.20;99.90;;;;;;5005178;28;20731;-78
2023/11/23 00:49:35;;;;;;;21.30;19.60;;;3.20;99.90;;;;;;4985683;28;20251;-78
2023/11/23 00:52:02;;;;;;;22.57;20.77;;;3.10;99.90;;;;;;4986695;28;20295;-78
2023/11/23 00:54:30;;;;;;;22.40;20.23;;;3.10;99.90;;;;;;4980906;28;20598;-77
2023/11/23 00:56:57;;;;;;;21.83;20.10;;;3.20;99.90;;;;;;5005008;28;20201;-78
2023/11/23 00:59:23;;;;;;;21.43;19.73;;;3.20;99.90;;;;;;4983524;28;20204;-78
2023/11/23 01:01:53;;;;;;;21.33;19.57;;;3.20;99.90;;;;;;4980375;28;20201;-78
2023/11/23 01:04:21;;;;;;;21.57;19.80;;;3.10;99.90;;;;;;5001289;28;20229;-78
2023/11/23 01:06:48;;;;;;;20.83;19.13;;;3.10;99.90;;;;;;4994600;28;20243;-77
2023/11/23 01:09:15;;;;;;;21.23;19.50;;;3.10;99.90;;;;;;5015448;28;20242;-78
2023/11/23 01:11:42;;;;;;;20.73;19.03;;;3.10;99.90;;;;;;4998450;28;20282;-79
2023/11/23 01:14:09;;;;;;;21.63;19.93;;;3.10;99.90;;;;;;4985764;28;20221;-78
2023/11/23 01:16:36;;;;;;;22.10;20.07;;;3.10;99.90;;;;;;4987126;28;20676;-78
2023/11/23 01:19:04;;;;;;;21.90;20.20;;;3.10;99.90;;;;;;4985107;28;20241;-78
2023/11/23 01:21:30;;;;;;;24.13;21.93;;;3.10;99.90;;;;;;4986535;28;20220;-78
2023/11/23 01:23:57;;;;;;;21.23;19.63;;;3.10;99.90;;;;;;4998824;28;20212;-78
2023/11/23 01:26:24;;;;;;;20.90;19.30;;;3.10;99.90;;;;;;5000693;28;20197;-78
2023/11/23 01:28:51;;;;;;;23.80;21.77;;;3.10;99.90;;;;;;4986855;28;20204;-78
2023/11/23 01:31:18;;;;;;;22.33;20.60;;;3.00;99.90;;;;;;4978902;28;20201;-78
2023/11/23 01:33:44;;;;;;;23.10;21.10;;;3.10;99.90;;;;;;4978481;28;20225;-78
2023/11/23 01:36:13;;;;;;;22.40;20.57;;;3.10;99.90;;;;;;4986932;28;20232;-78
2023/11/23 01:38:39;;;;;;;22.00;20.27;;;3.10;99.90;;;;;;4986385;28;20197;-78
2023/11/23 01:41:07;;;;;;;23.43;21.53;;;3.10;99.90;;;;;;5003567;28;20660;-78
2023/11/23 01:43:34;;;;;;;21.97;20.23;;;3.10;99.90;;;;;;4981748;28;20215;-78
2023/11/23 01:46:02;;;;;;;23.33;21.40;;;3.10;99.90;;;;;;5000718;28;20188;-78
2023/11/23 01:48:30;;;;;;;22.47;20.67;;;3.10;99.90;;;;;;4983687;28;20206;-78
2023/11/23 01:50:58;;;;;;;22.83;21.03;;;3.00;99.90;;;;;;5010006;28;20201;-78
2023/11/23 01:53:28;;;;;;;22.90;21.00;;;3.00;99.90;;;;;;4996218;28;20689;-78
2023/11/23 01:55:56;;;;;;;23.87;21.87;;;3.00;99.90;;;;;;4995270;28;20200;-78
2023/11/23 01:58:23;;;;;;;23.00;21.10;;;3.00;99.90;;;;;;4982854;28;20212;-78
2023/11/23 02:00:51;;;;;;;22.63;20.83;;;2.90;99.90;;;;;;4989506;28;20230;-78
2023/11/23 02:03:19;;;;;;;22.70;20.70;;;2.90;99.90;;;;;;4984103;28;20597;-78
2023/11/23 02:05:46;;;;;;;21.83;20.03;;;2.90;99.90;;;;;;4988182;28;20217;-78
2023/11/23 02:08:13;;;;;;;22.87;20.97;;;2.90;99.90;;;;;;5007919;28;20613;-78
2023/11/23 02:10:41;;;;;;;23.03;21.03;;;2.80;99.90;;;;;;4990872;28;20211;-77
2023/11/23 02:13:08;;;;;;;23.50;21.40;;;2.80;99.90;;;;;;4993157;28;20209;-78
2023/11/23 02:15:36;;;;;;;22.73;20.73;;;2.80;99.90;;;;;;4981667;28;20228;-78
2023/11/23 02:18:05;;;;;;;23.37;21.47;;;2.80;99.90;;;;;;5000133;28;20197;-78
2023/11/23 02:20:32;;;;;;;22.93;20.93;;;2.80;99.90;;;;;;4981928;28;20248;-78
2023/11/23 02:23:00;;;;;;;23.77;21.80;;;2.70;99.90;;;;;;5005678;28;20189;-78
2023/11/23 02:25:28;;;;;;;25.23;22.93;;;2.70;99.90;;;;;;4981441;28;20229;-78
2023/11/23 02:27:55;;;;;;;25.17;22.93;;;2.60;99.90;;;;;;4985541;28;20262;-77
2023/11/23 02:30:22;;;;;;;23.37;21.27;;;2.60;99.90;;;;;;4982094;28;20205;-78
2023/11/23 02:32:50;;;;;;;25.97;23.57;;;2.50;99.90;;;;;;4986846;28;20225;-77
2023/11/23 02:35:18;;;;;;;23.43;21.43;;;2.50;99.90;;;;;;5002408;28;20270;-78
2023/11/23 02:37:45;;;;;;;22.23;20.23;;;2.50;99.90;;;;;;4984179;28;20211;-78
2023/11/23 02:40:12;;;;;;;23.00;20.90;;;2.40;99.90;;;;;;4981352;28;20194;-78
2023/11/23 02:42:41;;;;;;;23.03;20.93;;;2.40;99.90;;;;;;4998949;28;20196;-77
2023/11/23 02:45:08;;;;;;;23.47;21.20;;;2.30;99.90;;;;;;4985179;28;20217;-77
2023/11/23 02:47:36;;;;;;;23.63;21.53;;;2.30;99.90;;;;;;4986012;28;20225;-77
2023/11/23 02:50:04;;;;;;;24.17;21.97;;;2.30;99.90;;;;;;5011824;28;20208;-78
2023/11/23 02:52:31;;;;;;;22.63;20.63;;;2.30;99.90;;;;;;5008360;28;20239;-78
2023/11/23 02:54:58;;;;;;;23.90;21.70;;;2.20;99.90;;;;;;4983071;28;20240;-78
2023/11/23 02:57:24;;;;;;;23.53;21.43;;;2.20;99.90;;;;;;5004214;28;20448;-78
2023/11/23 02:59:53;;;;;;;23.60;21.43;;;2.10;99.90;;;;;;4988709;28;20280;-78
2023/11/23 03:02:20;;;;;;;23.90;21.77;;;2.20;99.90;;;;;;4981558;28;20209;-78
2023/11/23 03:04:47;;;;;;;24.80;22.63;;;2.10;99.90;;;;;;4980763;28;20567;-78
2023/11/23 03:07:13;;;;;;;23.70;21.50;;;2.10;99.90;;;;;;4981480;28;20572;-78
2023/11/23 03:09:40;;;;;;;25.27;22.87;;;2.10;99.90;;;;;;5013882;28;20251;-78
2023/11/23 03:12:07;;;;;;;25.17;22.77;;;2.10;99.90;;;;;;4992678;28;20206;-77
2023/11/23 03:14:34;;;;;;;24.97;22.60;;;2.00;99.90;;;;;;4993234;28;20853;-78
2023/11/23 03:17:04;;;;;;;24.60;22.30;;;2.00;99.90;;;;;;4989075;28;20280;-77
2023/11/23 03:19:30;;;;;;;25.10;22.80;;;2.00;99.90;;;;;;5006250;28;20200;-78
2023/11/23 03:21:58;;;;;;;25.60;23.30;;;2.00;99.90;;;;;;4995041;28;20205;-78
2023/11/23 03:24:25;;;;;;;24.80;22.40;;;1.90;99.90;;;;;;4984692;28;20214;-78
2023/11/23 03:26:52;;;;;;;24.20;22.07;;;1.90;99.90;;;;;;5001982;28;20441;-78
2023/11/23 03:29:18;;;;;;;24.60;22.40;;;1.90;99.90;;;;;;4987119;28;20491;-77
2023/11/23 03:31:47;;;;;;;23.97;21.77;;;2.00;99.90;;;;;;4980596;28;20201;-78
2023/11/23 03:34:15;;;;;;;24.70;22.40;;;1.90;99.90;;;;;;5001480;28;20267;-78
2023/11/23 03:36:43;;;;;;;23.73;21.63;;;1.90;99.90;;;;;;4987008;28;20205;-78
2023/11/23 03:39:10;;;;;;;24.07;21.93;;;1.90;99.90;;;;;;5004481;28;20448;-78
2023/11/23 03:41:36;;;;;;;24.77;22.57;;;1.90;99.90;;;;;;4987495;28;20986;-79
2023/11/23 03:44:03;;;;;;;24.37;22.20;;;1.80;99.90;;;;;;5000292;28;20451;-78
2023/11/23 03:46:30;;;;;;;23.27;21.17;;;1.80;99.90;;;;;;4979574;28;20583;-78
2023/11/23 03:48:57;;;;;;;25.53;23.10;;;1.70;99.90;;;;;;4996958;28;20448;-78
2023/11/23 03:51:26;;;;;;;25.57;23.17;;;1.70;99.90;;;;;;5003301;28;20444;-80
2023/11/23 03:53:53;;;;;;;23.10;21.00;;;1.70;99.90;;;;;;5010260;28;20229;-79
2023/11/23 03:56:20;;;;;;;24.37;22.17;;;1.60;99.90;;;;;;5010935;28;20205;-78
2023/11/23 03:58:48;;;;;;;23.77;21.60;;;1.60;99.90;;;;;;5003093;28;20451;-79
2023/11/23 04:01:17;;;;;;;25.70;23.30;;;1.60;99.90;;;;;;5012874;28;20517;-79
2023/11/23 04:03:45;;;;;;;26.10;23.80;;;1.60;99.90;;;;;;5009672;28;20472;-78
2023/11/23 04:06:12;;;;;;;26.67;24.17;;;1.60;99.90;;;;;;4998861;28;20455;-79
2023/11/23 04:08:41;;;;;;;24.23;22.00;;;1.60;99.90;;;;;;4982834;28;20498;-78
2023/11/23 04:11:10;;;;;;;25.73;23.23;;;1.50;99.90;;;;;;4997535;28;20448;-79
2023/11/23 04:13:37;;;;;;;24.17;21.97;;;1.50;99.90;;;;;;4995780;28;20511;-79
2023/11/23 04:16:04;;;;;;;24.67;22.37;;;1.50;99.90;;;;;;5011059;28;20462;-79
2023/11/23 04:18:31;;;;;;;26.07;23.70;;;1.40;99.90;;;;;;5017296;28;20882;-78
2023/11/23 04:20:58;;;;;;;25.07;22.57;;;1.40;99.90;;;;;;5014699;28;20438;-78
2023/11/23 04:23:25;;;;;;;25.73;23.13;;;1.40;99.90;;;;;;5000576;28;20439;-79
2023/11/23 04:25:53;;;;;;;25.43;23.03;;;1.40;99.90;;;;;;5005558;28;20189;-79
2023/11/23 04:28:20;;;;;;;26.10;23.63;;;1.40;99.90;;;;;;5008802;28;20436;-78
2023/11/23 04:30:49;;;;;;;25.30;22.90;;;1.30;99.90;;;;;;4999973;28;20447;-76
2023/11/23 04:33:16;;;;;;;25.30;22.97;;;1.30;99.90;;;;;;4980192;28;20923;-77
2023/11/23 04:35:43;;;;;;;25.17;22.77;;;1.30;99.90;;;;;;4994555;28;20491;-77
2023/11/23 04:38:09;;;;;;;26.23;23.53;;;1.30;99.90;;;;;;4985945;28;20443;-78
2023/11/23 04:40:36;;;;;;;27.03;24.43;;;1.30;99.90;;;;;;5015034;28;20449;-78
2023/11/23 04:43:05;;;;;;;25.97;23.47;;;1.30;99.90;;;;;;4986708;28;20502;-78
2023/11/23 04:45:32;;;;;;;24.23;21.97;;;1.30;99.90;;;;;;4983155;28;20467;-77
2023/11/23 04:47:58;;;;;;;23.97;21.80;;;1.30;99.90;;;;;;4985035;28;20440;-77
2023/11/23 04:50:25;;;;;;;24.73;22.40;;;1.30;99.90;;;;;;4979911;28;20439;-77
2023/11/23 04:52:52;;;;;;;24.57;22.17;;;1.30;99.90;;;;;;4979154;28;20454;-77
2023/11/23 04:55:20;;;;;;;23.83;21.73;;;1.30;99.90;;;;;;4980102;28;21021;-77
2023/11/23 04:57:47;;;;;;;24.80;22.57;;;1.20;99.90;;;;;;4981320;28;20474;-77
2023/11/23 05:00:21;;;;;;;24.03;21.93;;;1.20;99.90;;;;;;5003083;28;20491;-77
2023/11/23 05:02:48;;;;;;;23.13;21.03;;;1.20;99.90;;;;;;4980477;28;20825;-77
2023/11/23 05:05:14;;;;;;;23.17;21.13;;;1.20;99.90;;;;;;4979005;28;20471;-77
2023/11/23 05:07:41;;;;;;;24.57;22.37;;;1.20;99.90;;;;;;4996175;28;20451;-77
2023/11/23 05:10:09;;;;;;;23.90;21.70;;;1.20;99.90;;;;;;4998540;28;20498;-77
2023/11/23 05:12:35;;;;;;;23.03;21.03;;;1.20;99.90;;;;;;4988456;28;20479;-77
2023/11/23 05:15:03;;;;;;;24.27;21.93;;;1.20;99.90;;;;;;5006175;28;20487;-77
2023/11/23 05:17:32;;;;;;;24.83;22.57;;;1.10;99.90;;;;;;4993699;28;20431;-77
2023/11/23 05:19:59;;;;;;;25.10;22.80;;;1.10;99.90;;;;;;4997852;28;20444;-77
2023/11/23 05:22:26;;;;;;;24.27;22.07;;;1.10;99.90;;;;;;4998684;28;20466;-77
2023/11/23 05:24:53;;;;;;;24.63;22.27;;;1.10;99.90;;;;;;4999057;28;20984;-77
2023/11/23 05:27:20;;;;;;;23.70;21.50;;;1.10;99.90;;;;;;4977440;28;20542;-77
2023/11/23 05:29:47;;;;;;;23.20;20.97;;;1.00;99.90;;;;;;4997431;28;20479;-78
2023/11/23 05:32:15;;;;;;;25.00;22.70;;;1.00;99.90;;;;;;4976269;28;20454;-77
2023/11/23 05:34:43;;;;;;;23.53;21.43;;;1.00;99.90;;;;;;4978586;28;20905;-77
2023/11/23 05:37:10;;;;;;;23.70;21.50;;;0.90;99.90;;;;;;4979531;28;20493;-77
2023/11/23 05:39:37;;;;;;;23.73;21.33;;;0.90;99.90;;;;;;4980533;28;20879;-77
2023/11/23 05:42:04;;;;;;;23.30;21.20;;;0.90;99.90;;;;;;4975521;28;20455;-77
2023/11/23 05:44:32;;;;;;;21.80;19.83;;;1.00;99.90;;;;;;5005477;28;20492;-77
2023/11/23 05:46:58;;;;;;;21.77;20.00;;;1.00;99.90;;;;;;4977664;28;20472;-77
2023/11/23 05:49:25;;;;;;;23.27;21.17;;;1.00;99.90;;;;;;4999977;28;20447;-77
2023/11/23 05:51:53;;;;;;;21.87;20.03;;;1.00;99.90;;;;;;4996382;28;20523;-77
2023/11/23 05:54:20;;;;;;;21.73;19.83;;;1.00;99.90;;;;;;5003663;28;20545;-76
2023/11/23 05:56:49;;;;;;;22.73;20.83;;;1.00;99.90;;;;;;4984897;28;20444;-77
2023/11/23 05:59:16;;;;;;;23.93;21.73;;;1.00;99.90;;;;;;4998997;28;20481;-77
2023/11/23 06:01:42;;;;;;;23.07;21.00;;;1.00;99.90;;;;;;4997881;28;20948;-77
2023/11/23 06:04:09;;;;;;;21.83;19.93;;;1.00;99.90;;;;;;4976857;28;20468;-76
2023/11/23 06:06:36;;;;;;;23.30;21.20;;;1.00;99.90;;;;;;4980852;28;20198;-77
2023/11/23 06:09:05;;;;;;;21.67;19.80;;;1.00;99.90;;;;;;5001189;28;20823;-77
2023/11/23 06:11:32;;;;;;;22.80;20.63;;;1.00;99.90;;;;;;4999513;28;20534;-77
2023/11/23 06:13:59;;;;;;;22.63;20.63;;;0.90;99.90;;;;;;4981115;28;20486;-78
2023/11/23 06:16:26;;;;;;;21.90;19.93;;;0.90;99.90;;;;;;4981557;28;20460;-78
2023/11/23 06:18:53;;;;;;;21.77;19.90;;;0.90;99.90;;;;;;4983849;28;20435;-77
2023/11/23 06:21:21;;;;;;;22.57;20.67;;;0.80;99.90;;;;;;4997030;28;20496;-78
2023/11/23 06:23:48;;;;;;;22.67;20.67;;;0.80;99.90;;;;;;5001685;28;20988;-77
2023/11/23 06:26:20;;;;;;;22.03;20.23;;;0.80;99.90;;;;;;4976493;28;20520;-78
2023/11/23 06:28:46;;;;;;;21.67;19.87;;;0.70;99.90;;;;;;4997503;28;20427;-78
2023/11/23 06:31:13;;;;;;;22.07;20.03;;;0.70;99.90;;;;;;4996723;28;20200;-78
2023/11/23 06:33:39;;;;;;;21.60;19.63;;;0.70;99.90;;;;;;4988515;28;20847;-78
2023/11/23 06:36:07;;;;;;;22.97;20.80;;;0.70;99.90;;;;;;4980603;28;20500;-77
2023/11/23 06:38:34;;;;;;;22.87;20.83;;;0.70;99.90;;;;;;4996753;28;20522;-77
2023/11/23 06:41:01;;;;;;;22.00;20.00;;;0.70;99.90;;;;;;4979957;28;20455;-77
2023/11/23 06:43:29;;;;;;;22.90;20.93;;;0.70;99.90;;;;;;5001340;28;20446;-77
2023/11/23 06:45:56;;;;;;;23.50;21.30;;;0.70;99.90;;;;;;5010236;28;20445;-77
2023/11/23 06:48:23;;;;;;;22.17;20.27;;;0.70;99.90;;;;;;4994744;28;20440;-77
2023/11/23 06:50:50;;;;;;;21.97;20.07;;;0.70;99.90;;;;;;4997424;28;20443;-77
2023/11/23 06:53:18;;;;;;;22.63;20.53;;;0.70;99.90;;;;;;4978716;28;20450;-77
2023/11/23 06:55:45;;;;;;;22.20;20.10;;;0.70;99.90;;;;;;5000061;28;20482;-78
2023/11/23 06:58:12;;;;;;;21.33;19.47;;;0.70;99.90;;;;;;5003988;28;21086;-77
2023/11/23 07:00:42;;;;;;;21.63;19.80;;;0.80;99.90;;;;;;5001637;28;20915;-77
2023/11/23 07:03:10;;;;;;;22.50;20.37;;;0.80;99.90;;;;;;4984609;28;20538;-77
2023/11/23 07:05:37;;;;;;;21.67;19.57;;;0.80;99.90;;;;;;5000107;28;20482;-78
2023/11/23 07:08:04;;;;;;;20.53;18.73;;;0.80;99.90;;;;;;4982919;28;20844;-77
2023/11/23 07:10:33;;;;;;;21.20;19.30;;;0.80;99.90;;;;;;4993475;28;20451;-77
2023/11/23 07:13:01;;;;;;;20.87;19.07;;;0.90;99.90;;;;;;4996126;28;20864;-77
2023/11/23 07:15:28;;;;;;;21.53;19.53;;;0.90;99.90;;;;;;5013094;28;20475;-77
2023/11/23 07:17:58;;;;;;;21.23;19.33;;;1.00;99.90;;;;;;4982952;28;20519;-77
2023/11/23 07:20:25;;;;;;;20.53;18.73;;;1.00;99.90;;;;;;4987607;28;20484;-77
2023/11/23 07:22:52;;;;;;;20.90;19.00;;;1.10;99.90;;;;;;4983779;28;20542;-78
2023/11/23 07:25:20;;;;;;;21.40;19.30;;;1.20;99.90;;;;;;4981378;28;20464;-78
2023/11/23 07:27:47;;;;;;;19.77;18.17;;;1.30;99.90;;;;;;5008818;28;20831;-77
2023/11/23 07:30:14;;;;;;;21.37;19.57;;;1.40;99.90;;;;;;5010133;28;20444;-78
2023/11/23 07:32:41;;;;;;;19.27;17.77;;;1.50;99.90;;;;;;4994592;28;20989;-78
2023/11/23 07:35:09;;;;;;;19.37;17.77;;;1.50;99.90;;;;;;5008328;28;20578;-78
2023/11/23 07:37:36;;;;;;;20.97;19.10;;;1.50;99.90;;;;;;4984528;28;20227;-78
2023/11/23 07:40:12;;;;;;;20.90;18.90;;;1.60;99.90;;;;;;5002121;28;20531;-78
2023/11/23 07:42:40;;;;;;;21.07;19.27;;;1.70;99.90;;;;;;4985682;28;20455;-77
2023/11/23 07:45:07;;;;;;;19.83;18.13;;;1.70;99.90;;;;;;5005989;28;20249;-78
2023/11/23 07:47:36;;;;;;;19.90;18.17;;;1.90;99.90;;;;;;5003010;28;20491;-77
2023/11/23 07:50:03;;;;;;;19.73;18.00;;;2.00;99.90;;;;;;5004766;28;20192;-78
2023/11/23 07:52:31;;;;;;;18.60;17.10;;;2.10;99.90;;;;;;5008517;28;20280;-78
2023/11/23 07:54:58;;;;;;;18.23;16.77;;;2.20;99.90;;;;;;5004368;28;20216;-78
2023/11/23 07:57:25;;;;;;;18.47;16.80;;;2.30;99.90;;;;;;4980889;28;20205;-78
2023/11/23 07:59:56;;;;;;;17.90;16.40;;;2.40;99.90;;;;;;4984379;28;20198;-77
2023/11/23 08:02:24;;;;;;;18.10;16.50;;;2.60;99.90;;;;;;4979637;28;20320;-77
2023/11/23 08:04:51;;;;;;;18.37;16.97;;;2.80;99.90;;;;;;4981912;28;20647;-77
2023/11/23 08:07:18;;;;;;;18.00;16.47;;;3.10;99.90;;;;;;4999262;28;20197;-78
2023/11/23 08:09:47;;;;;;;18.00;16.13;;;3.40;99.90;;;;;;4987768;28;20197;-78
2023/11/23 08:12:14;;;;;;;18.50;16.80;;;3.70;99.90;;;;;;5011061;28;20225;-78
2023/11/23 08:14:40;;;;;;;17.37;16.00;;;4.00;99.90;;;;;;5006337;28;20229;-78
2023/11/23 08:17:08;;;;;;;17.67;16.27;;;4.20;99.90;;;;;;5006770;28;20198;-78
2023/11/23 08:19:35;;;;;;;17.40;16.00;;;4.30;99.90;;;;;;5017885;28;20196;-77
2023/11/23 08:22:05;;;;;;;16.53;15.23;;;4.30;99.90;;;;;;5027182;28;20194;-78
2023/11/23 08:24:32;;;;;;;18.23;16.57;;;4.30;99.90;;;;;;5031705;28;20296;-78
2023/11/23 08:27:01;;;;;;;17.10;15.70;;;4.10;99.90;;;;;;5015889;28;20714;-77
2023/11/23 08:29:29;;;;;;;17.17;15.63;;;3.80;99.90;;;;;;5002349;28;20202;-76
2023/11/23 08:31:57;;;;;;;16.90;15.60;;;3.80;99.90;;;;;;4996125;28;20198;-78
2023/11/23 08:34:23;;;;;;;16.47;15.07;;;3.80;99.90;;;;;;5018941;28;20226;-77
2023/11/23 08:36:52;;;;;;;16.10;14.90;;;3.90;99.90;;;;;;4999891;28;20202;-78
2023/11/23 08:39:19;;;;;;;17.47;16.07;;;4.00;99.90;;;;;;4998486;28;20681;-78
2023/11/23 08:41:47;;;;;;;17.40;16.00;;;4.10;99.90;;;;;;5019749;28;20205;-77
2023/11/23 08:44:15;;;;;;;17.77;16.20;;;4.30;99.90;;;;;;4994447;28;20224;-78
2023/11/23 08:46:43;;;;;;;17.63;16.27;;;4.50;99.90;;;;;;5016672;28;20198;-78
2023/11/23 08:49:12;;;;;;;16.43;15.23;;;4.60;99.90;;;;;;5016522;28;20213;-78
2023/11/23 08:51:39;;;;;;;16.70;15.40;;;4.80;99.90;;;;;;4997283;28;20195;-78
2023/11/23 08:54:06;;;;;;;16.57;15.27;;;4.90;99.90;;;;;;5002794;28;20219;-78
2023/11/23 08:56:35;;;;;;;15.83;14.73;;;5.00;99.90;;;;;;5008448;28;20203;-79
2023/11/23 08:59:02;;;;;;;15.07;13.90;;;5.20;99.90;;;;;;4994202;28;20649;-79
2023/11/23 09:01:30;;;;;;;15.20;14.10;;;5.30;99.90;;;;;;5005677;28;20231;-79
2023/11/23 09:03:57;;;;;;;14.27;13.27;;;5.50;99.90;;;;;;4992340;28;20243;-78
2023/11/23 09:06:24;;;;;;;14.23;13.20;;;5.60;99.90;;;;;;5011531;28;20208;-78
2023/11/23 09:08:51;;;;;;;13.97;12.97;;;5.70;99.90;;;;;;4994820;28;20226;-79
2023/11/23 09:11:18;;;;;;;13.53;12.53;;;5.80;99.90;;;;;;5022850;28;20211;-79
2023/11/23 09:13:45;;;;;;;14.23;13.13;;;5.90;99.90;;;;;;5012327;28;20224;-78
2023/11/23 09:16:13;;;;;;;12.90;12.00;;;5.90;99.90;;;;;;5019007;28;20224;-78
2023/11/23 09:18:42;;;;;;;13.20;12.23;;;5.80;99.90;;;;;;5015061;28;20203;-79
2023/11/23 09:21:10;;;;;;;13.77;12.70;;;5.60;99.90;;;;;;4986035;28;20650;-78
2023/11/23 09:23:37;;;;;;;13.43;12.53;;;5.60;99.90;;;;;;5006998;28;20307;-78
2023/11/23 09:26:04;;;;;;;13.27;12.17;;;5.50;99.90;;;;;;4999130;28;20199;-78
2023/11/23 09:28:31;;;;;;;12.80;12.00;;;5.40;99.90;;;;;;5018045;28;20235;-78
2023/11/23 09:30:58;;;;;;;12.80;11.90;;;5.40;99.90;;;;;;5010211;28;20206;-79
2023/11/23 09:33:26;;;;;;;12.83;12.03;;;5.40;99.90;;;;;;4989593;28;20207;-79
2023/11/23 09:35:54;;;;;;;12.67;11.73;;;5.50;99.90;;;;;;4986824;28;20218;-78
2023/11/23 09:38:21;;;;;;;12.73;11.93;;;5.70;99.90;;;;;;5006739;28;20251;-79
2023/11/23 09:40:50;;;;;;;13.13;12.23;;;5.80;99.90;;;;;;4992763;28;20266;-80
2023/11/23 09:43:16;;;;;;;12.33;11.53;;;6.00;99.90;;;;;;4999255;28;20240;-80
2023/11/23 09:45:44;;;;;;;12.80;12.00;;;6.20;99.90;;;;;;5024230;28;20191;-79
2023/11/23 09:48:12;;;;;;;12.00;11.30;;;6.30;99.90;;;;;;5009075;28;20247;-79
2023/11/23 09:50:39;;;;;;;12.00;11.30;;;6.50;99.90;;;;;;5009340;28;20199;-80
2023/11/23 09:53:10;;;;;;;12.53;11.60;;;6.60;99.90;;;;;;5010183;28;20201;-81
2023/11/23 09:55:37;;;;;;;13.00;12.10;;;6.70;99.90;;;;;;4991029;28;20306;-79
2023/11/23 09:58:04;;;;;;;13.40;12.50;;;6.80;99.90;;;;;;5012569;28;20196;-79
2023/11/23 10:00:35;;;;;;;13.30;12.40;;;6.90;99.90;;;;;;5006773;28;20231;-79
2023/11/23 10:03:06;;;;;;;12.37;11.57;;;6.90;99.90;;;;;;4991936;28;20555;-79
2023/11/23 10:05:34;;;;;;;12.47;11.67;;;6.90;99.90;;;;;;4991811;28;20239;-79
2023/11/23 10:08:01;;;;;;;12.47;11.67;;;6.80;99.90;;;;;;4996549;28;20263;-78
2023/11/23 10:10:30;;;;;;;12.30;11.50;;;6.60;99.90;;;;;;5006976;28;20253;-78
2023/11/23 10:12:58;;;;;;;12.83;11.90;;;6.50;99.90;;;;;;5002744;28;20220;-79
2023/11/23 10:15:26;;;;;;;12.50;11.70;;;6.60;99.90;;;;;;5010804;28;20224;-81
2023/11/23 10:17:53;;;;;;;12.60;11.77;;;6.60;99.90;;;;;;4987351;28;20200;-80
2023/11/23 10:20:20;;;;;;;12.47;11.53;;;6.70;99.90;;;;;;4995092;28;20204;-79
2023/11/23 10:22:49;;;;;;;13.00;12.10;;;6.80;99.90;;;;;;5002017;28;20208;-80
2023/11/23 10:25:31;;;;;;;12.33;11.53;;;7.00;99.90;;;;;;4988337;28;20235;-81
2023/11/23 10:28:03;;;;;;;12.30;11.50;;;7.20;99.90;;;;;;5000219;28;20192;-82
2023/11/23 10:30:31;;;;;;;13.13;12.13;;;7.50;99.90;;;;;;4994717;28;20264;-80
2023/11/23 10:33:00;;;;;;;12.07;11.30;;;7.80;99.90;;;;;;4992996;28;20672;-80
2023/11/23 10:35:32;;;;;;;11.60;10.80;;;7.90;99.90;;;;;;4994611;28;20220;-79
2023/11/23 10:37:59;;;;;;;11.97;11.17;;;8.00;99.90;;;;;;5000328;28;20197;-79
2023/11/23 10:40:28;;;;;;;11.43;10.63;;;8.20;99.90;;;;;;5022240;28;20200;-80
2023/11/23 10:42:55;;;;;;;11.13;10.43;;;8.30;99.90;;;;;;4992401;28;20201;-79
2023/11/23 10:45:24;;;;;;;11.30;10.50;;;8.30;99.90;;;;;;4990091;28;20611;-79
2023/11/23 10:47:54;;;;;;;11.30;10.50;;;8.40;99.90;;;;;;5020751;28;20238;-83
2023/11/23 10:50:21;;;;;;;11.10;10.23;;;8.40;99.90;;;;;;5008097;28;20668;-79
2023/11/23 10:52:48;;;;;;;11.00;10.20;;;8.40;99.90;;;;;;5004892;28;20787;-80
2023/11/23 10:55:15;;;;;;;10.60;10.00;;;8.30;99.90;;;;;;5011373;28;20268;-79
2023/11/23 10:57:45;;;;;;;11.60;10.63;;;8.30;99.90;;;;;;5015255;28;20251;-79
2023/11/23 11:00:16;;;;;;;11.20;10.37;;;8.20;99.90;;;;;;5009174;28;20701;-82
2023/11/23 11:02:46;;;;;;;11.03;10.33;;;8.10;99.90;;;;;;5020035;28;20193;-81
2023/11/23 11:05:28;;;;;;;11.03;10.33;;;8.10;99.90;;;;;;4989546;28;20236;-81
2023/11/23 11:08:00;;;;;;;11.20;10.50;;;8.10;99.90;;;;;;4991924;28;20686;-83
2023/11/23 11:10:27;;;;;;;12.80;11.90;;;8.20;99.90;;;;;;4995047;28;20201;-82
2023/11/23 11:13:05;;;;;;;11.47;10.77;;;8.20;99.90;;;;;;5012642;28;20205;-81
2023/11/23 11:15:32;;;;;;;11.10;10.40;;;8.30;99.90;;;;;;4996826;28;20223;-82
2023/11/23 11:18:06;;;;;;;11.40;10.70;;;8.40;99.90;;;;;;4988330;28;20198;-82
2023/11/23 11:20:34;;;;;;;11.83;11.13;;;8.40;99.90;;;;;;5002676;28;20208;-82
2023/11/23 11:23:01;;;;;;;12.70;11.83;;;8.40;99.90;;;;;;4993443;28;20195;-81
2023/11/23 11:25:39;;;;;;;12.90;12.10;;;8.30;99.90;;;;;;4998597;28;20316;-83
2023/11/23 11:28:10;;;;;;;12.27;11.57;;;8.30;99.90;;;;;;4995174;28;20246;-82
2023/11/23 11:30:38;;;;;;;12.43;11.53;;;8.20;99.90;;;;;;4997659;28;20201;-83
2023/11/23 11:33:08;;;;;;;12.50;11.80;;;8.20;99.90;;;;;;4989156;28;20307;-82
2023/11/23 11:35:43;;;;;;;12.10;11.40;;;8.10;99.90;;;;;;4991298;28;20304;-82
2023/11/23 11:38:15;;;;;;;12.37;11.67;;;8.10;99.90;;;;;;4997764;28;20246;-82
2023/11/23 11:40:43;;;;;;;11.70;11.10;;;8.10;99.90;;;;;;4998270;28;20196;-82
2023/11/23 11:43:10;;;;;;;11.83;11.13;;;8.10;99.90;;;;;;5010104;28;20673;-82
2023/11/23 11:45:37;;;;;;;11.70;11.00;;;8.10;99.90;;;;;;4994406;28;20212;-82
2023/11/23 11:48:06;;;;;;;11.00;10.40;;;8.10;99.90;;;;;;4991066;28;20208;-82
2023/11/23 11:50:33;;;;;;;11.30;10.60;;;8.10;99.90;;;;;;5008049;28;20193;-83
2023/11/23 11:52:59;;;;;;;11.10;10.50;;;8.00;99.90;;;;;;4994889;28;20204;-83
2023/11/23 11:55:27;;;;;;;11.20;10.50;;;8.10;99.90;;;;;;5004429;28;20221;-82
2023/11/23 11:57:55;;;;;;;10.97;10.27;;;8.10;99.90;;;;;;4993205;28;20289;-82
2023/11/23 12:00:22;;;;;;;11.93;11.23;;;8.20;99.90;;;;;;4990070;28;20205;-86
2023/11/23 12:02:49;;;;;;;10.90;10.20;;;8.20;99.90;;;;;;4997501;28;20201;-81
2023/11/23 12:05:18;;;;;;;11.23;10.53;;;8.30;99.90;;;;;;4986559;28;20234;-83
2023/11/23 12:07:52;;;;;;;11.70;11.00;;;8.30;99.90;;;;;;4980341;28;20573;-81
2023/11/23 12:10:20;;;;;;;11.67;10.97;;;8.30;99.90;;;;;;4985587;28;20214;-83
2023/11/23 12:12:48;;;;;;;12.03;11.30;;;8.30;99.90;;;;;;4982332;28;20243;-82
2023/11/23 12:15:16;;;;;;;12.37;11.67;;;8.30;99.90;;;;;;5016651;28;20299;-83
2023/11/23 12:17:50;;;;;;;11.80;11.20;;;8.30;99.90;;;;;;5005027;28;20199;-86
2023/11/23 12:20:18;;;;;;;12.10;11.40;;;8.30;99.90;;;;;;4979450;28;20228;-83
2023/11/23 12:22:45;;;;;;;11.30;10.70;;;8.30;99.90;;;;;;5003314;28;20188;-83
2023/11/23 12:25:13;;;;;;;11.40;10.60;;;8.30;99.90;;;;;;5019504;28;20661;-84
2023/11/23 12:27:44;;;;;;;11.10;10.40;;;8.30;99.90;;;;;;5023799;28;20649;-84
2023/11/23 12:30:15;;;;;;;11.00;10.30;;;8.30;99.90;;;;;;5015564;28;20586;-83
2023/11/23 12:32:42;;;;;;;11.13;10.50;;;8.30;99.90;;;;;;4999246;28;20260;-84
2023/11/23 12:35:09;;;;;;;10.60;10.00;;;8.30;99.90;;;;;;5017279;28;20216;-85
2023/11/23 12:37:37;;;;;;;10.37;9.77;;;8.30;99.90;;;;;;5000079;28;20215;-85